sensor_id;sensor_type;location;lat;lon;timestamp;pressure;altitude;pressure_sealevel;temperature;humidity
77227;BME280;66234;47.642;19.144;2023-02-28T00:00:13;101432.13;;;-0.33;63.69
77227;BME280;66234;47.642;19.144;2023-02-28T00:03:16;101433.69;;;-0.30;64.08
77227;BME280;66234;47.642;19.144;2023-02-28T00:06:19;101437.38;;;-0.33;63.92
77227;BME280;66234;47.642;19.144;2023-02-28T00:09:23;101443.56;;;-0.34;64.21
77227;BME280;66234;47.642;19.144;2023-02-28T00:12:26;101446.50;;;-0.26;63.65
77227;BME280;66234;47.642;19.144;2023-02-28T00:15:29;101440.38;;;-0.26;64.42
77227;BME280;66234;47.642;19.144;2023-02-28T00:18:31;101449.56;;;-0.32;63.56
77227;BME280;66234;47.642;19.144;2023-02-28T00:21:34;101449.53;;;-0.19;62.95
77227;BME280;66234;47.642;19.144;2023-02-28T00:24:37;101455.19;;;-0.13;62.69
77227;BME280;66234;47.642;19.144;2023-02-28T00:27:40;101462.56;;;-0.18;62.67
77227;BME280;66234;47.642;19.144;2023-02-28T00:30:43;101459.72;;;-0.15;62.42
77227;BME280;66234;47.642;19.144;2023-02-28T00:33:46;101458.97;;;-0.17;63.31
77227;BME280;66234;47.642;19.144;2023-02-28T00:36:49;101453.09;;;-0.20;62.11
77227;BME280;66234;47.642;19.144;2023-02-28T00:39:52;101463.41;;;-0.17;62.45
77227;BME280;66234;47.642;19.144;2023-02-28T00:42:54;101464.22;;;-0.17;62.45
77227;BME280;66234;47.642;19.144;2023-02-28T00:45:57;101466.13;;;-0.19;62.25
77227;BME280;66234;47.642;19.144;2023-02-28T00:49:00;101475.06;;;-0.21;62.13
77227;BME280;66234;47.642;19.144;2023-02-28T00:52:03;101474.31;;;-0.23;62.15
77227;BME280;66234;47.642;19.144;2023-02-28T00:55:06;101472.44;;;-0.21;63.69
77227;BME280;66234;47.642;19.144;2023-02-28T00:58:08;101470.78;;;-0.22;63.06
77227;BME280;66234;47.642;19.144;2023-02-28T01:01:11;101477.03;;;-0.12;63.80
77227;BME280;66234;47.642;19.144;2023-02-28T01:04:14;101479.06;;;-0.16;63.48
77227;BME280;66234;47.642;19.144;2023-02-28T01:07:16;101479.34;;;-0.08;63.65
77227;BME280;66234;47.642;19.144;2023-02-28T01:10:21;101477.13;;;-0.01;62.32
77227;BME280;66234;47.642;19.144;2023-02-28T01:13:24;101470.09;;;-0.01;61.46
77227;BME280;66234;47.642;19.144;2023-02-28T01:16:28;101472.50;;;0.03;61.26
77227;BME280;66234;47.642;19.144;2023-02-28T01:19:31;101478.84;;;0.11;61.55
77227;BME280;66234;47.642;19.144;2023-02-28T01:22:34;101475.84;;;0.05;61.41
77227;BME280;66234;47.642;19.144;2023-02-28T01:25:37;101464.50;;;0.04;61.79
77227;BME280;66234;47.642;19.144;2023-02-28T01:28:41;101476.84;;;0.15;61.81
77227;BME280;66234;47.642;19.144;2023-02-28T01:31:43;101482.13;;;0.15;61.25
77227;BME280;66234;47.642;19.144;2023-02-28T01:34:46;101479.03;;;0.21;61.14
77227;BME280;66234;47.642;19.144;2023-02-28T01:37:49;101473.09;;;0.30;60.58
77227;BME280;66234;47.642;19.144;2023-02-28T01:40:51;101483.47;;;0.20;61.49
77227;BME280;66234;47.642;19.144;2023-02-28T01:47:48;101479.09;;;0.32;61.22
77227;BME280;66234;47.642;19.144;2023-02-28T01:50:55;101475.72;;;0.30;61.52
77227;BME280;66234;47.642;19.144;2023-02-28T01:54:03;101476.13;;;0.36;61.54
77227;BME280;66234;47.642;19.144;2023-02-28T01:57:11;101476.63;;;0.41;61.70
77227;BME280;66234;47.642;19.144;2023-02-28T02:00:18;101475.56;;;0.44;61.55
77227;BME280;66234;47.642;19.144;2023-02-28T02:03:23;101470.47;;;0.53;62.04
77227;BME280;66234;47.642;19.144;2023-02-28T02:06:29;101470.34;;;0.55;61.54
77227;BME280;66234;47.642;19.144;2023-02-28T02:09:32;101478.97;;;0.57;61.18
77227;BME280;66234;47.642;19.144;2023-02-28T02:13:18;101472.88;;;0.56;61.37
77227;BME280;66234;47.642;19.144;2023-02-28T02:27:28;101465.66;;;0.47;62.27
77227;BME280;66234;47.642;19.144;2023-02-28T02:38:06;101458.91;;;0.32;62.47
77227;BME280;66234;47.642;19.144;2023-02-28T02:41:19;101452.91;;;0.30;62.58
77227;BME280;66234;47.642;19.144;2023-02-28T02:44:48;101458.22;;;0.41;63.94
77227;BME280;66234;47.642;19.144;2023-02-28T02:47:55;101455.38;;;0.44;63.38
77227;BME280;66234;47.642;19.144;2023-02-28T02:51:04;101457.88;;;0.46;62.90
77227;BME280;66234;47.642;19.144;2023-02-28T02:54:20;101466.41;;;0.49;63.05
77227;BME280;66234;47.642;19.144;2023-02-28T02:57:35;101466.50;;;0.48;63.19
77227;BME280;66234;47.642;19.144;2023-02-28T03:00:49;101463.88;;;0.48;63.23
77227;BME280;66234;47.642;19.144;2023-02-28T03:03:59;101469.09;;;0.60;62.69
77227;BME280;66234;47.642;19.144;2023-02-28T03:07:03;101473.38;;;0.61;63.12
77227;BME280;66234;47.642;19.144;2023-02-28T03:10:25;101470.41;;;0.66;63.37
77227;BME280;66234;47.642;19.144;2023-02-28T03:17:18;101472.53;;;0.61;61.84
77227;BME280;66234;47.642;19.144;2023-02-28T03:20:36;101476.13;;;0.60;62.04
77227;BME280;66234;47.642;19.144;2023-02-28T03:24:01;101476.63;;;0.65;61.63
77227;BME280;66234;47.642;19.144;2023-02-28T03:27:13;101478.56;;;0.74;61.33
77227;BME280;66234;47.642;19.144;2023-02-28T03:33:54;101474.28;;;0.84;61.76
77227;BME280;66234;47.642;19.144;2023-02-28T03:37:10;101481.00;;;0.88;60.95
77227;BME280;66234;47.642;19.144;2023-02-28T03:40:20;101477.28;;;0.90;60.45
77227;BME280;66234;47.642;19.144;2023-02-28T03:43:28;101475.13;;;0.84;60.83
77227;BME280;66234;47.642;19.144;2023-02-28T03:46:35;101473.94;;;0.88;61.76
77227;BME280;66234;47.642;19.144;2023-02-28T03:49:43;101473.25;;;0.97;60.85
77227;BME280;66234;47.642;19.144;2023-02-28T03:52:55;101471.56;;;0.96;60.83
77227;BME280;66234;47.642;19.144;2023-02-28T03:56:11;101475.03;;;0.97;61.14
77227;BME280;66234;47.642;19.144;2023-02-28T03:59:26;101471.34;;;0.99;61.26
77227;BME280;66234;47.642;19.144;2023-02-28T04:02:31;101472.53;;;0.95;61.14
77227;BME280;66234;47.642;19.144;2023-02-28T04:05:52;101475.75;;;0.88;61.78
77227;BME280;66234;47.642;19.144;2023-02-28T04:08:55;101475.28;;;0.94;60.96
77227;BME280;66234;47.642;19.144;2023-02-28T04:11:58;101474.28;;;0.84;61.93
77227;BME280;66234;47.642;19.144;2023-02-28T04:15:00;101470.94;;;0.82;62.13
77227;BME280;66234;47.642;19.144;2023-02-28T04:18:05;101475.38;;;0.81;61.79
77227;BME280;66234;47.642;19.144;2023-02-28T04:21:08;101472.50;;;0.84;61.15
77227;BME280;66234;47.642;19.144;2023-02-28T04:24:15;101462.94;;;0.83;61.39
77227;BME280;66234;47.642;19.144;2023-02-28T04:27:18;101466.63;;;0.81;61.52
77227;BME280;66234;47.642;19.144;2023-02-28T04:30:21;101459.91;;;0.77;62.36
77227;BME280;66234;47.642;19.144;2023-02-28T04:33:24;101462.44;;;0.78;61.42
77227;BME280;66234;47.642;19.144;2023-02-28T04:36:26;101453.38;;;0.93;60.80
77227;BME280;66234;47.642;19.144;2023-02-28T04:39:30;101453.03;;;1.09;59.02
77227;BME280;66234;47.642;19.144;2023-02-28T04:42:32;101456.16;;;1.03;59.28
77227;BME280;66234;47.642;19.144;2023-02-28T04:45:37;101451.31;;;0.86;59.33
77227;BME280;66234;47.642;19.144;2023-02-28T04:48:40;101446.16;;;0.84;58.66
77227;BME280;66234;47.642;19.144;2023-02-28T04:51:43;101459.44;;;0.83;58.94
77227;BME280;66234;47.642;19.144;2023-02-28T04:54:46;101452.28;;;0.85;59.52
77227;BME280;66234;47.642;19.144;2023-02-28T04:57:48;101448.22;;;0.92;59.23
77227;BME280;66234;47.642;19.144;2023-02-28T05:00:52;101451.09;;;0.89;59.60
77227;BME280;66234;47.642;19.144;2023-02-28T05:03:57;101454.44;;;0.91;59.28
77227;BME280;66234;47.642;19.144;2023-02-28T05:07:01;101464.59;;;0.84;59.92
77227;BME280;66234;47.642;19.144;2023-02-28T05:10:04;101460.78;;;0.88;59.75
77227;BME280;66234;47.642;19.144;2023-02-28T05:13:11;101461.97;;;0.84;59.79
77227;BME280;66234;47.642;19.144;2023-02-28T05:16:15;101458.41;;;0.96;59.53
77227;BME280;66234;47.642;19.144;2023-02-28T05:19:18;101459.88;;;1.11;58.77
77227;BME280;66234;47.642;19.144;2023-02-28T05:22:23;101453.78;;;1.11;58.41
77227;BME280;66234;47.642;19.144;2023-02-28T05:25:26;101457.94;;;1.13;58.39
77227;BME280;66234;47.642;19.144;2023-02-28T05:28:28;101461.91;;;1.08;58.64
77227;BME280;66234;47.642;19.144;2023-02-28T05:31:31;101459.88;;;1.22;57.73
77227;BME280;66234;47.642;19.144;2023-02-28T05:34:36;101467.78;;;1.11;58.79
77227;BME280;66234;47.642;19.144;2023-02-28T05:37:39;101476.00;;;1.07;58.69
77227;BME280;66234;47.642;19.144;2023-02-28T05:40:41;101476.97;;;1.06;59.18
77227;BME280;66234;47.642;19.144;2023-02-28T05:43:44;101475.19;;;1.06;58.93
77227;BME280;66234;47.642;19.144;2023-02-28T05:46:46;101480.50;;;1.28;58.76
77227;BME280;66234;47.642;19.144;2023-02-28T05:49:49;101489.59;;;1.35;58.77
77227;BME280;66234;47.642;19.144;2023-02-28T05:52:52;101485.31;;;1.34;58.80
77227;BME280;66234;47.642;19.144;2023-02-28T05:55:55;101495.00;;;1.34;58.70
77227;BME280;66234;47.642;19.144;2023-02-28T05:58:57;101499.06;;;1.38;58.90
77227;BME280;66234;47.642;19.144;2023-02-28T06:02:00;101494.50;;;1.40;59.10
77227;BME280;66234;47.642;19.144;2023-02-28T06:05:02;101498.25;;;1.48;58.54
77227;BME280;66234;47.642;19.144;2023-02-28T06:08:05;101496.91;;;1.43;59.18
77227;BME280;66234;47.642;19.144;2023-02-28T06:11:09;101504.94;;;1.52;58.41
77227;BME280;66234;47.642;19.144;2023-02-28T06:14:16;101500.41;;;1.54;57.46
77227;BME280;66234;47.642;19.144;2023-02-28T06:17:19;101501.00;;;1.69;56.42
77227;BME280;66234;47.642;19.144;2023-02-28T06:20:22;101499.81;;;1.62;56.78
77227;BME280;66234;47.642;19.144;2023-02-28T06:23:25;101497.88;;;1.75;55.60
77227;BME280;66234;47.642;19.144;2023-02-28T06:26:29;101512.75;;;1.76;56.25
77227;BME280;66234;47.642;19.144;2023-02-28T06:29:34;101509.63;;;1.71;56.22
77227;BME280;66234;47.642;19.144;2023-02-28T06:32:37;101510.34;;;1.84;56.06
77227;BME280;66234;47.642;19.144;2023-02-28T06:35:39;101509.97;;;2.00;54.89
77227;BME280;66234;47.642;19.144;2023-02-28T06:38:42;101512.47;;;2.01;55.51
77227;BME280;66234;47.642;19.144;2023-02-28T06:41:45;101514.91;;;1.93;55.50
77227;BME280;66234;47.642;19.144;2023-02-28T06:44:57;101520.28;;;2.03;56.25
77227;BME280;66234;47.642;19.144;2023-02-28T06:47:59;101516.91;;;2.12;54.67
77227;BME280;66234;47.642;19.144;2023-02-28T06:51:07;101510.28;;;2.28;53.99
77227;BME280;66234;47.642;19.144;2023-02-28T06:54:11;101515.69;;;2.27;53.38
77227;BME280;66234;47.642;19.144;2023-02-28T06:57:14;101514.84;;;2.26;53.64
77227;BME280;66234;47.642;19.144;2023-02-28T07:00:17;101516.19;;;2.21;53.45
77227;BME280;66234;47.642;19.144;2023-02-28T07:03:20;101524.34;;;2.18;53.15
77227;BME280;66234;47.642;19.144;2023-02-28T07:06:23;101528.53;;;2.20;53.20
77227;BME280;66234;47.642;19.144;2023-02-28T07:09:26;101521.22;;;2.13;53.43
77227;BME280;66234;47.642;19.144;2023-02-28T07:12:32;101528.97;;;2.36;52.20
77227;BME280;66234;47.642;19.144;2023-02-28T07:15:36;101528.34;;;2.44;52.12
77227;BME280;66234;47.642;19.144;2023-02-28T07:18:45;101535.41;;;2.54;52.11
77227;BME280;66234;47.642;19.144;2023-02-28T07:21:48;101544.44;;;2.52;51.42
77227;BME280;66234;47.642;19.144;2023-02-28T07:24:51;101532.50;;;2.57;52.18
77227;BME280;66234;47.642;19.144;2023-02-28T07:27:54;101539.94;;;2.63;50.17
77227;BME280;66234;47.642;19.144;2023-02-28T07:31:03;101540.84;;;2.84;49.52
77227;BME280;66234;47.642;19.144;2023-02-28T07:34:06;101543.34;;;2.86;49.80
77227;BME280;66234;47.642;19.144;2023-02-28T07:37:09;101538.63;;;2.89;49.64
77227;BME280;66234;47.642;19.144;2023-02-28T07:40:12;101543.09;;;2.89;48.75
77227;BME280;66234;47.642;19.144;2023-02-28T07:43:15;101549.03;;;2.70;49.65
77227;BME280;66234;47.642;19.144;2023-02-28T07:46:18;101550.94;;;2.79;48.73
77227;BME280;66234;47.642;19.144;2023-02-28T07:49:22;101554.16;;;2.83;49.86
77227;BME280;66234;47.642;19.144;2023-02-28T07:52:25;101553.03;;;2.96;49.73
77227;BME280;66234;47.642;19.144;2023-02-28T07:55:28;101548.84;;;3.14;49.13
77227;BME280;66234;47.642;19.144;2023-02-28T07:58:31;101540.53;;;3.39;47.84
77227;BME280;66234;47.642;19.144;2023-02-28T08:01:34;101537.56;;;3.54;47.40
77227;BME280;66234;47.642;19.144;2023-02-28T08:04:37;101547.81;;;3.68;46.93
77227;BME280;66234;47.642;19.144;2023-02-28T08:07:40;101541.84;;;3.75;47.82
77227;BME280;66234;47.642;19.144;2023-02-28T08:10:43;101542.50;;;3.68;46.57
77227;BME280;66234;47.642;19.144;2023-02-28T08:13:46;101540.75;;;3.78;47.03
77227;BME280;66234;47.642;19.144;2023-02-28T08:16:49;101546.97;;;3.97;46.88
77227;BME280;66234;47.642;19.144;2023-02-28T08:19:52;101549.38;;;4.10;46.65
77227;BME280;66234;47.642;19.144;2023-02-28T08:22:55;101544.03;;;3.70;47.58
77227;BME280;66234;47.642;19.144;2023-02-28T08:25:57;101549.69;;;3.86;46.88
77227;BME280;66234;47.642;19.144;2023-02-28T08:29:00;101549.66;;;4.07;47.60
77227;BME280;66234;47.642;19.144;2023-02-28T08:32:04;101561.13;;;4.26;46.29
77227;BME280;66234;47.642;19.144;2023-02-28T08:35:07;101554.91;;;4.46;46.76
77227;BME280;66234;47.642;19.144;2023-02-28T08:38:11;101556.69;;;4.36;46.47
77227;BME280;66234;47.642;19.144;2023-02-28T08:41:14;101551.84;;;4.41;46.74
77227;BME280;66234;47.642;19.144;2023-02-28T08:44:17;101549.78;;;4.54;46.62
77227;BME280;66234;47.642;19.144;2023-02-28T08:47:19;101553.28;;;4.64;45.86
77227;BME280;66234;47.642;19.144;2023-02-28T08:50:23;101553.38;;;4.53;45.97
77227;BME280;66234;47.642;19.144;2023-02-28T08:53:26;101556.34;;;4.60;45.42
77227;BME280;66234;47.642;19.144;2023-02-28T08:56:29;101548.81;;;4.65;45.12
77227;BME280;66234;47.642;19.144;2023-02-28T08:59:33;101555.34;;;4.42;46.02
77227;BME280;66234;47.642;19.144;2023-02-28T09:02:35;101549.03;;;4.24;46.67
77227;BME280;66234;47.642;19.144;2023-02-28T09:05:39;101547.56;;;4.78;44.95
77227;BME280;66234;47.642;19.144;2023-02-28T09:08:42;101549.94;;;4.91;44.24
77227;BME280;66234;47.642;19.144;2023-02-28T09:11:46;101543.38;;;5.14;43.26
77227;BME280;66234;47.642;19.144;2023-02-28T09:14:48;101534.03;;;4.81;42.97
77227;BME280;66234;47.642;19.144;2023-02-28T09:17:51;101542.53;;;5.23;42.52
77227;BME280;66234;47.642;19.144;2023-02-28T09:20:54;101540.00;;;5.41;42.12
77227;BME280;66234;47.642;19.144;2023-02-28T09:23:57;101544.06;;;5.35;41.18
77227;BME280;66234;47.642;19.144;2023-02-28T09:26:59;101547.69;;;5.34;42.60
77227;BME280;66234;47.642;19.144;2023-02-28T09:30:07;101540.84;;;5.41;42.78
77227;BME280;66234;47.642;19.144;2023-02-28T09:33:10;101541.47;;;5.72;41.44
77227;BME280;66234;47.642;19.144;2023-02-28T09:36:13;101548.13;;;5.20;43.18
77227;BME280;66234;47.642;19.144;2023-02-28T09:39:16;101549.78;;;5.40;43.63
77227;BME280;66234;47.642;19.144;2023-02-28T09:42:26;101548.66;;;5.52;42.57
77227;BME280;66234;47.642;19.144;2023-02-28T09:45:42;101555.41;;;5.83;41.45
77227;BME280;66234;47.642;19.144;2023-02-28T09:48:50;101553.09;;;6.07;40.27
77227;BME280;66234;47.642;19.144;2023-02-28T09:52:03;101550.75;;;6.04;40.86
77227;BME280;66234;47.642;19.144;2023-02-28T09:58:39;101549.50;;;6.53;41.05
77227;BME280;66234;47.642;19.144;2023-02-28T10:01:54;101552.59;;;6.48;41.20
77227;BME280;66234;47.642;19.144;2023-02-28T10:05:04;101550.34;;;6.53;39.94
77227;BME280;66234;47.642;19.144;2023-02-28T10:08:17;101547.81;;;5.98;41.25
77227;BME280;66234;47.642;19.144;2023-02-28T10:11:21;101542.97;;;5.93;42.39
77227;BME280;66234;47.642;19.144;2023-02-28T10:14:28;101540.66;;;6.35;41.62
77227;BME280;66234;47.642;19.144;2023-02-28T10:17:38;101531.72;;;6.53;41.08
77227;BME280;66234;47.642;19.144;2023-02-28T10:21:02;101533.09;;;6.13;41.74
77227;BME280;66234;47.642;19.144;2023-02-28T10:24:36;101532.75;;;6.25;41.26
77227;BME280;66234;47.642;19.144;2023-02-28T10:27:41;101530.56;;;5.75;42.87
77227;BME280;66234;47.642;19.144;2023-02-28T10:30:49;101530.00;;;5.71;43.30
77227;BME280;66234;47.642;19.144;2023-02-28T10:33:52;101526.16;;;5.56;43.98
77227;BME280;66234;47.642;19.144;2023-02-28T10:36:55;101519.41;;;5.71;43.69
77227;BME280;66234;47.642;19.144;2023-02-28T10:39:58;101514.19;;;5.79;43.48
77227;BME280;66234;47.642;19.144;2023-02-28T10:49:21;101503.16;;;5.38;44.17
77227;BME280;66234;47.642;19.144;2023-02-28T10:52:37;101506.94;;;5.35;44.60
77227;BME280;66234;47.642;19.144;2023-02-28T10:55:41;101494.78;;;5.42;45.65
77227;BME280;66234;47.642;19.144;2023-02-28T10:59:20;101495.41;;;5.63;44.68
77227;BME280;66234;47.642;19.144;2023-02-28T11:02:31;101490.31;;;5.79;44.61
77227;BME280;66234;47.642;19.144;2023-02-28T11:05:36;101485.88;;;5.70;45.04
77227;BME280;66234;47.642;19.144;2023-02-28T11:08:51;101479.59;;;5.71;45.34
77227;BME280;66234;47.642;19.144;2023-02-28T11:11:55;101485.34;;;5.67;44.90
77227;BME280;66234;47.642;19.144;2023-02-28T11:15:01;101480.31;;;6.00;44.96
77227;BME280;66234;47.642;19.144;2023-02-28T11:18:24;101486.31;;;6.29;44.11
77227;BME280;66234;47.642;19.144;2023-02-28T11:21:34;101481.16;;;6.28;44.60
77227;BME280;66234;47.642;19.144;2023-02-28T11:24:44;101478.91;;;6.50;43.97
77227;BME280;66234;47.642;19.144;2023-02-28T11:27:57;101483.44;;;6.58;44.34
77227;BME280;66234;47.642;19.144;2023-02-28T11:34:26;101483.47;;;6.76;43.59
77227;BME280;66234;47.642;19.144;2023-02-28T11:37:31;101484.56;;;7.08;43.26
77227;BME280;66234;47.642;19.144;2023-02-28T11:40:43;101475.50;;;7.44;42.01
77227;BME280;66234;47.642;19.144;2023-02-28T11:47:12;101473.00;;;7.43;41.34
77227;BME280;66234;47.642;19.144;2023-02-28T11:56:51;101464.78;;;8.29;40.13
77227;BME280;66234;47.642;19.144;2023-02-28T12:00:06;101467.84;;;8.08;40.99
77227;BME280;66234;47.642;19.144;2023-02-28T12:10:30;101446.28;;;8.44;39.00
77227;BME280;66234;47.642;19.144;2023-02-28T12:17:26;101444.47;;;8.44;38.74
77227;BME280;66234;47.642;19.144;2023-02-28T12:20:38;101429.47;;;9.15;38.24
77227;BME280;66234;47.642;19.144;2023-02-28T12:24:18;101427.47;;;9.17;38.39
77227;BME280;66234;47.642;19.144;2023-02-28T12:27:29;101426.31;;;9.04;38.30
77227;BME280;66234;47.642;19.144;2023-02-28T12:30:35;101427.97;;;9.13;38.11
77227;BME280;66234;47.642;19.144;2023-02-28T12:33:46;101422.66;;;8.89;38.10
77227;BME280;66234;47.642;19.144;2023-02-28T12:36:51;101429.00;;;8.64;39.55
77227;BME280;66234;47.642;19.144;2023-02-28T12:40:01;101425.81;;;8.36;41.57
77227;BME280;66234;47.642;19.144;2023-02-28T12:43:10;101422.63;;;8.41;39.81
77227;BME280;66234;47.642;19.144;2023-02-28T12:46:18;101418.16;;;8.57;40.16
77227;BME280;66234;47.642;19.144;2023-02-28T12:49:27;101420.66;;;8.75;39.18
77227;BME280;66234;47.642;19.144;2023-02-28T12:59:21;101408.06;;;9.39;37.92
77227;BME280;66234;47.642;19.144;2023-02-28T13:09:28;101399.13;;;9.16;37.45
77227;BME280;66234;47.642;19.144;2023-02-28T13:12:32;101397.16;;;8.94;38.74
77227;BME280;66234;47.642;19.144;2023-02-28T13:15:35;101395.75;;;9.22;37.88
77227;BME280;66234;47.642;19.144;2023-02-28T13:18:45;101391.06;;;9.40;38.00
77227;BME280;66234;47.642;19.144;2023-02-28T13:21:50;101397.38;;;9.86;37.69
77227;BME280;66234;47.642;19.144;2023-02-28T13:24:55;101386.25;;;10.05;37.52
77227;BME280;66234;47.642;19.144;2023-02-28T13:27:57;101390.03;;;9.41;40.01
77227;BME280;66234;47.642;19.144;2023-02-28T13:31:05;101389.78;;;9.12;40.12
77227;BME280;66234;47.642;19.144;2023-02-28T13:34:15;101391.78;;;9.10;39.59
77227;BME280;66234;47.642;19.144;2023-02-28T13:40:36;101392.31;;;9.06;39.39
77227;BME280;66234;47.642;19.144;2023-02-28T13:47:21;101391.16;;;8.76;39.58
77227;BME280;66234;47.642;19.144;2023-02-28T13:53:53;101375.66;;;8.88;40.82
77227;BME280;66234;47.642;19.144;2023-02-28T14:01:02;101365.72;;;9.28;39.31
77227;BME280;66234;47.642;19.144;2023-02-28T14:07:27;101357.28;;;9.55;38.79
77227;BME280;66234;47.642;19.144;2023-02-28T14:10:46;101360.81;;;9.56;39.12
77227;BME280;66234;47.642;19.144;2023-02-28T14:13:51;101356.75;;;9.21;40.01
77227;BME280;66234;47.642;19.144;2023-02-28T14:16:55;101358.41;;;9.22;40.96
77227;BME280;66234;47.642;19.144;2023-02-28T14:20:01;101350.09;;;9.17;39.65
77227;BME280;66234;47.642;19.144;2023-02-28T14:23:42;101350.88;;;9.34;40.37
77227;BME280;66234;47.642;19.144;2023-02-28T14:37:03;101346.00;;;8.83;41.14
77227;BME280;66234;47.642;19.144;2023-02-28T14:40:19;101341.84;;;8.72;41.79
77227;BME280;66234;47.642;19.144;2023-02-28T14:43:26;101340.22;;;8.63;42.90
77227;BME280;66234;47.642;19.144;2023-02-28T14:46:38;101348.88;;;8.49;42.33
77227;BME280;66234;47.642;19.144;2023-02-28T14:49:44;101346.03;;;8.43;42.01
77227;BME280;66234;47.642;19.144;2023-02-28T14:52:53;101353.31;;;8.16;42.21
77227;BME280;66234;47.642;19.144;2023-02-28T14:55:58;101354.94;;;8.09;42.55
77227;BME280;66234;47.642;19.144;2023-02-28T14:59:05;101357.91;;;7.82;43.00
77227;BME280;66234;47.642;19.144;2023-02-28T15:02:22;101350.41;;;7.78;43.48
77227;BME280;66234;47.642;19.144;2023-02-28T15:05:30;101359.50;;;7.67;43.77
77227;BME280;66234;47.642;19.144;2023-02-28T15:08:35;101352.19;;;7.69;44.65
77227;BME280;66234;47.642;19.144;2023-02-28T15:11:39;101358.47;;;7.52;44.92
77227;BME280;66234;47.642;19.144;2023-02-28T15:14:44;101353.94;;;7.45;45.55
77227;BME280;66234;47.642;19.144;2023-02-28T15:17:50;101353.09;;;7.44;45.06
77227;BME280;66234;47.642;19.144;2023-02-28T15:20:58;101349.75;;;7.34;46.14
77227;BME280;66234;47.642;19.144;2023-02-28T15:27:30;101363.03;;;7.34;46.08
77227;BME280;66234;47.642;19.144;2023-02-28T15:30:35;101359.00;;;7.22;46.05
77227;BME280;66234;47.642;19.144;2023-02-28T15:33:52;101361.84;;;7.29;46.67
77227;BME280;66234;47.642;19.144;2023-02-28T15:36:55;101354.66;;;7.21;46.63
77227;BME280;66234;47.642;19.144;2023-02-28T15:40:23;101345.50;;;7.16;46.83
77227;BME280;66234;47.642;19.144;2023-02-28T15:43:35;101345.28;;;7.09;47.01
77227;BME280;66234;47.642;19.144;2023-02-28T15:46:38;101340.66;;;7.11;47.75
77227;BME280;66234;47.642;19.144;2023-02-28T15:49:49;101338.88;;;6.68;49.15
77227;BME280;66234;47.642;19.144;2023-02-28T15:52:53;101343.25;;;6.78;50.07
77227;BME280;66234;47.642;19.144;2023-02-28T15:56:00;101348.31;;;6.89;48.69
77227;BME280;66234;47.642;19.144;2023-02-28T15:59:07;101344.84;;;6.88;49.30
77227;BME280;66234;47.642;19.144;2023-02-28T16:02:19;101345.75;;;6.53;50.08
77227;BME280;66234;47.642;19.144;2023-02-28T16:08:30;101355.41;;;6.37;50.76
77227;BME280;66234;47.642;19.144;2023-02-28T16:11:34;101360.03;;;6.35;51.56
77227;BME280;66234;47.642;19.144;2023-02-28T16:14:39;101363.31;;;6.29;51.94
77227;BME280;66234;47.642;19.144;2023-02-28T16:17:42;101357.38;;;6.00;51.88
77227;BME280;66234;47.642;19.144;2023-02-28T16:20:45;101359.97;;;5.92;52.17
77227;BME280;66234;47.642;19.144;2023-02-28T16:23:48;101365.50;;;5.98;52.40
77227;BME280;66234;47.642;19.144;2023-02-28T16:26:53;101361.91;;;5.90;52.24
77227;BME280;66234;47.642;19.144;2023-02-28T16:29:57;101358.00;;;5.94;52.75
77227;BME280;66234;47.642;19.144;2023-02-28T16:33:00;101359.34;;;5.98;52.25
77227;BME280;66234;47.642;19.144;2023-02-28T16:36:02;101354.88;;;5.98;53.05
77227;BME280;66234;47.642;19.144;2023-02-28T16:39:05;101360.03;;;6.00;52.46
77227;BME280;66234;47.642;19.144;2023-02-28T16:45:39;101374.53;;;5.78;54.14
77227;BME280;66234;47.642;19.144;2023-02-28T16:48:43;101385.72;;;5.82;54.25
77227;BME280;66234;47.642;19.144;2023-02-28T16:51:46;101376.50;;;5.76;53.31
77227;BME280;66234;47.642;19.144;2023-02-28T16:54:49;101386.97;;;5.78;53.85
77227;BME280;66234;47.642;19.144;2023-02-28T16:57:57;101388.25;;;5.74;53.64
77227;BME280;66234;47.642;19.144;2023-02-28T17:01:02;101388.97;;;5.66;53.70
77227;BME280;66234;47.642;19.144;2023-02-28T17:04:04;101390.81;;;5.66;53.88
77227;BME280;66234;47.642;19.144;2023-02-28T17:07:16;101388.59;;;5.61;54.49
77227;BME280;66234;47.642;19.144;2023-02-28T17:10:26;101393.06;;;5.61;54.42
77227;BME280;66234;47.642;19.144;2023-02-28T17:13:28;101390.41;;;5.61;53.79
77227;BME280;66234;47.642;19.144;2023-02-28T17:16:33;101398.19;;;5.72;53.63
77227;BME280;66234;47.642;19.144;2023-02-28T17:19:39;101405.34;;;5.62;54.02
77227;BME280;66234;47.642;19.144;2023-02-28T17:22:45;101400.84;;;5.72;54.92
77227;BME280;66234;47.642;19.144;2023-02-28T17:25:48;101398.34;;;5.70;54.31
77227;BME280;66234;47.642;19.144;2023-02-28T17:28:58;101402.63;;;5.71;54.28
77227;BME280;66234;47.642;19.144;2023-02-28T17:32:01;101400.88;;;5.62;54.41
77227;BME280;66234;47.642;19.144;2023-02-28T17:35:18;101400.03;;;5.62;55.15
77227;BME280;66234;47.642;19.144;2023-02-28T17:38:21;101402.03;;;5.60;55.42
77227;BME280;66234;47.642;19.144;2023-02-28T17:41:25;101404.13;;;5.56;55.58
77227;BME280;66234;47.642;19.144;2023-02-28T17:44:28;101403.72;;;5.51;55.78
77227;BME280;66234;47.642;19.144;2023-02-28T17:47:31;101404.16;;;5.47;55.82
77227;BME280;66234;47.642;19.144;2023-02-28T17:50:34;101406.22;;;5.53;56.05
77227;BME280;66234;47.642;19.144;2023-02-28T17:53:37;101406.53;;;5.50;55.91
77227;BME280;66234;47.642;19.144;2023-02-28T17:56:40;101407.78;;;5.55;56.21
77227;BME280;66234;47.642;19.144;2023-02-28T17:59:45;101403.44;;;5.54;56.63
77227;BME280;66234;47.642;19.144;2023-02-28T18:02:48;101403.88;;;5.50;56.43
77227;BME280;66234;47.642;19.144;2023-02-28T18:05:51;101407.09;;;5.44;57.03
77227;BME280;66234;47.642;19.144;2023-02-28T18:08:54;101408.06;;;5.52;58.08